Time;durP1;ratioP1;P1;durP2;ratioP2;P2;SDS_P1;SDS_P2;PMS_P1;PMS_P2;Temp;Humidity;BMP_temperature;BMP_pressure;BME280_temperature;BME280_humidity;BME280_pressure;Samples;Min_cycle;Max_cycle;Signal;HPM_P1;HPM_P2
2023/12/08 00:00:23;;;;;;;17.17;11.98;;;;;;;2.60;100.00;100671.34;4823756;29;20051;-67
2023/12/08 00:03:12;;;;;;;17.85;12.20;;;;;;;2.63;100.00;100670.91;4827812;29;20416;-65
2023/12/08 00:06:00;;;;;;;16.17;11.07;;;;;;;2.65;100.00;100664.28;4834660;29;20076;-65
2023/12/08 00:08:48;;;;;;;18.17;12.05;;;;;;;2.67;100.00;100661.34;4838074;29;20058;-64
2023/12/08 00:11:37;;;;;;;18.63;12.27;;;;;;;2.63;100.00;100654.78;4827961;29;20416;-65
2023/12/08 00:14:25;;;;;;;15.30;10.95;;;;;;;2.63;100.00;100641.31;4831963;29;20065;-65
2023/12/08 00:17:13;;;;;;;17.52;12.40;;;;;;;2.67;100.00;100634.44;4841888;29;20439;-67
2023/12/08 00:20:03;;;;;;;16.77;12.00;;;;;;;2.63;100.00;100617.94;4823205;29;20536;-67
2023/12/08 00:22:51;;;;;;;18.05;12.93;;;;;;;2.51;100.00;100615.13;4824007;29;20062;-66
2023/12/08 00:25:39;;;;;;;16.17;11.10;;;;;;;2.54;100.00;100643.47;4823270;29;20431;-67
2023/12/08 00:28:27;;;;;;;18.25;12.50;;;;;;;2.65;100.00;100631.19;4823776;29;20509;-66
2023/12/08 00:31:15;;;;;;;16.77;12.55;;;;;;;2.71;100.00;100631.09;4822312;29;20137;-67
2023/12/08 00:34:03;;;;;;;15.65;10.98;;;;;;;2.73;100.00;100628.19;4827663;29;20539;-66
2023/12/08 00:36:51;;;;;;;17.48;12.35;;;;;;;2.75;100.00;100626.94;4826749;29;20046;-66
2023/12/08 00:39:40;;;;;;;16.80;11.50;;;;;;;2.77;100.00;100630.22;4833331;29;20054;-64
2023/12/08 00:42:28;;;;;;;16.42;11.90;;;;;;;2.78;100.00;100614.91;4835784;29;20062;-66
2023/12/08 00:45:16;;;;;;;16.13;11.63;;;;;;;2.78;100.00;100620.28;4827660;29;20195;-63
2023/12/08 00:48:05;;;;;;;17.27;10.88;;;;;;;2.80;100.00;100623.56;4843977;29;20057;-66
2023/12/08 00:50:53;;;;;;;16.85;11.60;;;;;;;2.79;100.00;100621.94;4831999;29;20058;-65
2023/12/08 00:53:44;;;;;;;17.33;11.88;;;;;;;2.83;100.00;100612.38;4826628;29;20051;-65
2023/12/08 00:56:32;;;;;;;16.25;11.27;;;;;;;2.86;100.00;100611.94;4825829;29;20058;-65
2023/12/08 00:59:20;;;;;;;14.32;9.82;;;;;;;2.88;100.00;100619.78;4842776;29;20073;-65
2023/12/08 01:02:08;;;;;;;15.88;11.00;;;;;;;2.90;100.00;100613.13;4827957;29;20159;-66
2023/12/08 01:04:56;;;;;;;16.10;11.35;;;;;;;2.95;100.00;100615.97;4825731;29;20050;-67
2023/12/08 01:07:44;;;;;;;15.35;10.93;;;;;;;2.97;100.00;100624.66;4813324;29;20527;-63
2023/12/08 01:10:32;;;;;;;18.67;11.65;;;;;;;3.01;100.00;100616.13;4830577;29;20050;-66
2023/12/08 01:13:20;;;;;;;17.55;11.70;;;;;;;3.03;100.00;100619.41;4826690;29;20472;-65
2023/12/08 01:16:08;;;;;;;16.73;10.35;;;;;;;3.04;100.00;100613.81;4826181;29;20093;-65
2023/12/08 01:18:56;;;;;;;16.73;11.18;;;;;;;3.04;100.00;100605.75;4825414;29;20058;-66
2023/12/08 01:21:45;;;;;;;15.55;10.55;;;;;;;3.04;100.00;100596.84;4824919;29;20057;-66
2023/12/08 01:24:33;;;;;;;15.07;10.38;;;;;;;3.01;100.00;100605.34;4841021;29;20113;-65
2023/12/08 01:27:21;;;;;;;14.30;10.40;;;;;;;3.01;100.00;100595.44;4825178;29;20050;-66
2023/12/08 01:30:11;;;;;;;15.75;10.73;;;;;;;3.00;100.00;100596.47;4812074;29;20453;-64
2023/12/08 01:32:59;;;;;;;17.70;11.75;;;;;;;2.96;100.00;100593.41;4837568;29;20138;-66
2023/12/08 01:35:47;;;;;;;15.15;10.85;;;;;;;2.92;100.00;100600.28;4825982;29;20046;-66
2023/12/08 01:38:35;;;;;;;16.48;11.00;;;;;;;2.90;100.00;100596.16;4826336;29;20057;-66
2023/12/08 01:41:23;;;;;;;15.90;10.18;;;;;;;2.88;100.00;100582.91;4827310;29;20150;-67
2023/12/08 01:44:11;;;;;;;15.00;10.80;;;;;;;2.88;100.00;100579.41;4825203;29;20050;-68
2023/12/08 01:46:59;;;;;;;18.35;11.70;;;;;;;2.88;100.00;100582.09;4824668;29;20054;-67
2023/12/08 01:49:47;;;;;;;14.90;10.35;;;;;;;2.86;100.00;100585.03;4800297;29;20461;-66
2023/12/08 01:52:36;;;;;;;15.55;11.07;;;;;;;2.89;100.00;100578.38;4823975;29;20130;-66
2023/12/08 01:55:24;;;;;;;16.70;11.10;;;;;;;2.89;100.00;100568.44;4823257;29;20054;-67
2023/12/08 01:58:12;;;;;;;15.35;11.05;;;;;;;2.89;100.00;100564.94;4828843;29;20203;-65
2023/12/08 02:01:03;;;;;;;15.95;10.85;;;;;;;2.86;100.00;100571.59;4829495;29;20058;-67
2023/12/08 02:03:51;;;;;;;17.92;11.48;;;;;;;2.87;100.00;100564.31;4824618;29;20536;-66
2023/12/08 02:06:40;;;;;;;16.25;11.43;;;;;;;2.83;100.00;100558.56;4825780;29;20053;-67
2023/12/08 02:09:28;;;;;;;17.13;11.02;;;;;;;2.79;100.00;100552.00;4830674;29;20114;-66
2023/12/08 02:12:16;;;;;;;18.67;11.05;;;;;;;2.75;100.00;100554.28;4840983;29;20141;-67
2023/12/08 02:15:04;;;;;;;16.00;11.02;;;;;;;2.75;100.00;100550.78;4813013;29;20435;-65
2023/12/08 02:17:54;;;;;;;17.58;11.98;;;;;;;2.77;100.00;100543.31;4825568;29;20050;-67
2023/12/08 02:20:42;;;;;;;17.20;11.30;;;;;;;2.79;100.00;100535.84;4824786;29;20050;-67
2023/12/08 02:23:30;;;;;;;15.45;10.50;;;;;;;2.81;100.00;100538.31;4824108;29;20042;-66
2023/12/08 02:26:19;;;;;;;17.63;11.13;;;;;;;2.77;100.00;100532.56;4824558;29;20046;-67
2023/12/08 02:29:09;;;;;;;17.60;11.57;;;;;;;2.73;100.00;100525.97;4824088;29;20080;-67
2023/12/08 02:32:01;;;;;;;16.30;11.23;;;;;;;2.68;100.00;100521.25;4825001;29;20057;-67
2023/12/08 02:34:50;;;;;;;16.30;10.65;;;;;;;2.69;100.00;100514.81;4836543;29;20533;-68
2023/12/08 02:37:43;;;;;;;16.70;11.13;;;;;;;2.69;100.00;100508.63;4841190;29;20091;-65
2023/12/08 02:40:31;;;;;;;15.02;10.60;;;;;;;2.72;100.00;100509.00;4823770;29;20066;-65
2023/12/08 02:43:20;;;;;;;13.98;9.70;;;;;;;2.76;100.00;100507.50;4816597;29;20050;-67
2023/12/08 02:46:08;;;;;;;17.33;11.25;;;;;;;2.81;100.00;100501.44;4842717;29;20083;-66
2023/12/08 02:48:56;;;;;;;14.30;9.77;;;;;;;2.82;100.00;100508.50;4840888;29;20050;-66
2023/12/08 02:51:44;;;;;;;13.57;9.85;;;;;;;2.81;100.00;100496.06;4829063;29;20420;-66
2023/12/08 02:54:32;;;;;;;15.75;11.05;;;;;;;2.74;100.00;100500.69;4836513;29;20106;-66
2023/12/08 02:57:20;;;;;;;15.85;10.60;;;;;;;2.69;100.00;100500.56;4825556;29;20058;-64
2023/12/08 03:00:09;;;;;;;15.20;9.88;;;;;;;2.68;100.00;100493.53;4824918;29;20098;-66
2023/12/08 03:02:57;;;;;;;15.98;11.05;;;;;;;2.71;100.00;100485.03;4824056;29;20056;-67
2023/12/08 03:05:45;;;;;;;15.88;10.65;;;;;;;2.74;100.00;100488.09;4833919;29;20049;-67
2023/12/08 03:08:33;;;;;;;16.17;10.38;;;;;;;2.74;100.00;100490.78;4823503;29;20081;-67
2023/12/08 03:11:21;;;;;;;14.57;10.20;;;;;;;2.79;100.00;100487.44;4834887;29;20053;-66
2023/12/08 03:14:09;;;;;;;15.48;10.82;;;;;;;2.83;100.00;100499.34;4840868;29;20162;-67
2023/12/08 03:16:57;;;;;;;15.02;10.13;;;;;;;2.83;100.00;100483.22;4828430;29;20050;-67
2023/12/08 03:19:45;;;;;;;16.27;10.88;;;;;;;2.82;100.00;100481.59;4841120;29;20422;-67
2023/12/08 03:22:33;;;;;;;12.90;9.43;;;;;;;2.79;100.00;100482.03;4841952;29;20057;-65
2023/12/08 03:25:21;;;;;;;16.75;10.05;;;;;;;2.85;100.00;100488.38;4839308;29;20062;-67
2023/12/08 03:28:09;;;;;;;15.30;10.90;;;;;;;2.88;100.00;100496.81;4837229;29;20058;-67
2023/12/08 03:30:57;;;;;;;17.40;9.93;;;;;;;2.93;100.00;100499.66;4824351;29;20496;-68
2023/12/08 03:33:45;;;;;;;15.60;10.85;;;;;;;3.00;100.00;100502.25;4825846;29;20050;-68
2023/12/08 03:36:33;;;;;;;14.25;10.32;;;;;;;3.02;100.00;100499.34;4824866;29;20065;-67
2023/12/08 03:39:21;;;;;;;15.73;10.98;;;;;;;3.04;100.00;100483.81;4824887;29;20122;-67
2023/12/08 03:42:09;;;;;;;14.82;10.45;;;;;;;3.01;100.00;100476.16;4824819;29;20073;-67
2023/12/08 03:44:57;;;;;;;16.13;10.40;;;;;;;3.01;100.00;100473.47;4822999;29;20125;-67
2023/12/08 03:47:45;;;;;;;12.27;9.15;;;;;;;3.04;100.00;100467.66;4836051;29;20535;-67
2023/12/08 03:50:33;;;;;;;15.10;10.55;;;;;;;3.05;100.00;100477.38;4822290;29;20640;-66
2023/12/08 03:53:21;;;;;;;15.07;10.50;;;;;;;3.05;100.00;100480.06;4823236;29;20424;-68
2023/12/08 03:56:09;;;;;;;15.75;10.20;;;;;;;3.03;100.00;100477.63;4824617;29;20054;-67
2023/12/08 03:58:57;;;;;;;15.80;10.55;;;;;;;3.05;100.00;100463.91;4823405;29;20059;-67
2023/12/08 04:01:45;;;;;;;15.35;10.38;;;;;;;3.06;100.00;100473.66;4822796;29;20046;-66
2023/12/08 04:04:33;;;;;;;16.15;10.98;;;;;;;3.08;100.00;100464.28;4823170;29;20110;-66
2023/12/08 04:07:21;;;;;;;13.88;10.32;;;;;;;3.10;100.00;100472.13;4825072;29;20050;-67
2023/12/08 04:10:09;;;;;;;14.80;9.65;;;;;;;3.09;100.00;100463.22;4823881;29;20049;-66
2023/12/08 04:12:57;;;;;;;14.80;10.48;;;;;;;3.09;100.00;100465.09;4839132;29;20050;-63
2023/12/08 04:15:45;;;;;;;14.93;10.48;;;;;;;3.07;100.00;100459.13;4840496;29;20065;-64
2023/12/08 04:18:35;;;;;;;14.80;10.10;;;;;;;3.07;100.00;100464.50;4844619;29;20061;-63
2023/12/08 04:21:23;;;;;;;15.90;11.20;;;;;;;3.09;100.00;100459.72;4844334;29;20106;-62
2023/12/08 04:24:11;;;;;;;14.00;9.85;;;;;;;3.09;100.00;100459.72;4843976;29;20115;-66
2023/12/08 04:26:59;;;;;;;13.98;10.85;;;;;;;3.10;100.00;100461.34;4847188;29;20054;-65
2023/12/08 04:29:47;;;;;;;23.02;10.68;;;;;;;3.10;100.00;100462.19;4844776;29;20054;-63
2023/12/08 04:32:35;;;;;;;17.13;11.05;;;;;;;3.09;100.00;100467.81;4837809;29;20519;-67
2023/12/08 04:35:24;;;;;;;16.23;10.40;;;;;;;3.08;100.00;100466.13;4826652;29;20415;-66
2023/12/08 04:38:12;;;;;;;14.77;10.30;;;;;;;3.10;100.00;100455.97;4826839;29;20254;-66
2023/12/08 04:41:00;;;;;;;17.95;11.05;;;;;;;3.10;100.00;100446.06;4826373;29;20062;-66
2023/12/08 04:43:48;;;;;;;16.58;10.65;;;;;;;3.12;100.00;100453.88;4813932;29;20140;-67
2023/12/08 04:46:36;;;;;;;16.02;11.15;;;;;;;3.11;100.00;100469.22;4826849;29;20134;-67
2023/12/08 04:49:24;;;;;;;16.00;10.73;;;;;;;3.11;100.00;100463.81;4817963;29;20244;-68
2023/12/08 04:52:12;;;;;;;14.77;10.60;;;;;;;3.11;100.00;100471.09;4826513;29;20062;-67
2023/12/08 04:55:01;;;;;;;15.30;10.63;;;;;;;3.10;100.00;100472.13;4840611;29;20072;-67
2023/12/08 04:57:50;;;;;;;13.48;9.88;;;;;;;3.11;100.00;100449.56;4825505;29;20068;-67
2023/12/08 05:00:38;;;;;;;15.35;11.38;;;;;;;3.12;100.00;100443.09;4843138;29;20435;-67
2023/12/08 05:03:26;;;;;;;18.92;10.50;;;;;;;3.12;100.00;100441.22;4844202;29;20078;-66
2023/12/08 05:06:15;;;;;;;14.40;11.10;;;;;;;3.11;100.00;100458.44;4844246;29;20125;-66
2023/12/08 05:09:04;;;;;;;14.68;10.73;;;;;;;3.09;100.00;100457.84;4826798;29;20057;-65
2023/12/08 05:11:52;;;;;;;15.60;10.75;;;;;;;3.09;100.00;100449.78;4825938;29;20052;-65
2023/12/08 05:14:40;;;;;;;15.75;10.68;;;;;;;3.08;100.00;100442.75;4825043;29;20046;-66
2023/12/08 05:17:28;;;;;;;18.02;11.60;;;;;;;3.11;100.00;100441.47;4839056;29;20114;-66
2023/12/08 05:20:16;;;;;;;15.55;9.88;;;;;;;3.12;100.00;100448.50;4828170;29;20596;-66
2023/12/08 05:23:04;;;;;;;14.57;10.18;;;;;;;3.13;100.00;100445.59;4825419;29;20203;-65
2023/12/08 05:25:52;;;;;;;14.00;9.93;;;;;;;3.14;100.00;100443.72;4835737;29;20042;-66
2023/12/08 05:28:43;;;;;;;15.43;9.68;;;;;;;3.14;100.00;100430.25;4825821;29;20051;-68
2023/12/08 05:31:31;;;;;;;13.77;9.65;;;;;;;3.16;100.00;100438.91;4836852;29;20511;-66
2023/12/08 05:34:19;;;;;;;13.75;9.75;;;;;;;3.17;100.00;100435.16;4827316;29;20062;-66
2023/12/08 05:37:07;;;;;;;12.13;9.07;;;;;;;3.17;100.00;100429.78;4824548;29;20058;-66
2023/12/08 05:39:55;;;;;;;13.05;9.77;;;;;;;3.16;100.00;100442.44;4824804;29;20050;-66
2023/12/08 05:42:43;;;;;;;14.25;9.77;;;;;;;3.17;100.00;100438.66;4825048;29;20054;-66
2023/12/08 05:45:32;;;;;;;13.77;9.45;;;;;;;3.17;100.00;100462.09;4823767;29;20525;-66
2023/12/08 05:48:21;;;;;;;14.35;9.95;;;;;;;3.18;100.00;100466.44;4823645;29;20199;-66
2023/12/08 05:51:09;;;;;;;15.88;9.98;;;;;;;3.16;100.00;100461.28;4826051;29;20054;-67
2023/12/08 05:53:57;;;;;;;13.07;9.55;;;;;;;3.14;100.00;100462.56;4823375;29;20043;-65
2023/12/08 05:56:45;;;;;;;16.50;10.38;;;;;;;3.11;100.00;100463.00;4828223;29;20280;-65
2023/12/08 05:59:35;;;;;;;12.65;9.20;;;;;;;3.12;100.00;100464.66;4838881;29;20194;-65
2023/12/08 06:02:23;;;;;;;13.73;9.27;;;;;;;3.14;100.00;100468.75;4826125;29;20058;-68
2023/12/08 06:05:13;;;;;;;13.55;9.45;;;;;;;3.15;100.00;100469.56;4824806;29;20042;-68
2023/12/08 06:08:01;;;;;;;14.25;9.68;;;;;;;3.09;100.00;100460.53;4825460;29;20560;-67
2023/12/08 06:10:49;;;;;;;14.90;10.23;;;;;;;3.08;100.00;100469.69;4824067;29;20050;-67
2023/12/08 06:13:37;;;;;;;12.77;9.45;;;;;;;3.09;100.00;100465.09;4825682;29;20129;-69
2023/12/08 06:16:25;;;;;;;14.60;10.13;;;;;;;3.10;100.00;100466.72;4829643;29;20137;-68
2023/12/08 06:19:13;;;;;;;16.02;9.75;;;;;;;3.07;100.00;100464.50;4837387;29;20559;-67
2023/12/08 06:22:01;;;;;;;14.18;9.80;;;;;;;3.09;100.00;100451.66;4842673;29;20060;-68
2023/12/08 06:24:49;;;;;;;13.65;9.38;;;;;;;3.11;100.00;100457.63;4831457;29;20064;-68
2023/12/08 06:27:37;;;;;;;14.27;9.20;;;;;;;3.15;100.00;100458.78;4832036;29;20046;-68
2023/12/08 06:30:25;;;;;;;13.05;9.75;;;;;;;3.17;100.00;100459.41;4838254;29;20060;-67
2023/12/08 06:33:13;;;;;;;14.35;9.95;;;;;;;3.17;100.00;100465.59;4825079;29;20087;-67
2023/12/08 06:36:02;;;;;;;13.93;10.23;;;;;;;3.18;100.00;100475.34;4841561;29;20452;-66
2023/12/08 06:38:50;;;;;;;17.00;10.57;;;;;;;3.20;100.00;100475.94;4840119;29;20049;-67
2023/12/08 06:41:38;;;;;;;13.60;9.38;;;;;;;3.24;100.00;100473.59;4830149;29;20061;-67
2023/12/08 06:44:29;;;;;;;13.50;9.77;;;;;;;3.25;100.00;100477.94;4832087;29;20061;-67
2023/12/08 06:47:17;;;;;;;13.57;9.63;;;;;;;3.24;100.00;100473.59;4158383;29;10000386;-68
2023/12/08 06:50:05;;;;;;;14.50;9.82;;;;;;;3.22;100.00;100469.47;4813075;29;20070;-68
2023/12/08 06:52:53;;;;;;;15.95;10.50;;;;;;;3.22;100.00;100480.25;4821387;29;20537;-68
2023/12/08 06:55:41;;;;;;;18.08;9.82;;;;;;;3.22;100.00;100470.28;4835765;29;20053;-68
2023/12/08 06:58:29;;;;;;;15.10;10.15;;;;;;;3.25;100.00;100474.41;4835632;29;20109;-67
2023/12/08 07:01:17;;;;;;;17.05;10.07;;;;;;;3.26;100.00;100476.06;4834250;29;20069;-67
2023/12/08 07:04:05;;;;;;;14.60;9.63;;;;;;;3.26;100.00;100476.88;4828259;29;20066;-66
2023/12/08 07:06:53;;;;;;;14.98;9.27;;;;;;;3.26;100.00;100482.25;4821186;29;20057;-68
2023/12/08 07:09:42;;;;;;;16.08;10.30;;;;;;;3.25;100.00;100483.31;4834394;29;20472;-68
2023/12/08 07:12:30;;;;;;;14.90;9.80;;;;;;;3.27;100.00;100492.00;4839026;29;20053;-66
2023/12/08 07:15:18;;;;;;;13.60;9.45;;;;;;;3.30;100.00;100485.34;4837479;29;20061;-66
2023/12/08 07:18:06;;;;;;;15.18;9.27;;;;;;;3.31;100.00;100487.78;4834455;29;20438;-67
2023/12/08 07:20:54;;;;;;;15.85;9.77;;;;;;;3.31;100.00;100490.47;4824772;29;20049;-66
2023/12/08 07:23:42;;;;;;;17.52;9.98;;;;;;;3.28;100.00;100477.47;4808418;29;20535;-67
2023/12/08 07:26:30;;;;;;;17.88;10.55;;;;;;;3.28;100.00;100488.25;4809647;29;20404;-65
2023/12/08 07:29:19;;;;;;;18.70;10.40;;;;;;;3.34;100.00;100490.03;4823604;29;20450;-69
2023/12/08 07:32:07;;;;;;;17.73;11.02;;;;;;;3.35;100.00;100488.16;4830795;29;20054;-68
2023/12/08 07:34:55;;;;;;;16.65;11.13;;;;;;;3.29;100.00;100484.50;4820364;29;20050;-68
2023/12/08 07:37:43;;;;;;;16.50;11.80;;;;;;;3.27;100.00;100488.47;4819071;29;20127;-66
2023/12/08 07:40:31;;;;;;;17.55;11.00;;;;;;;3.27;100.00;100491.16;4820243;29;20050;-67
2023/12/08 07:43:19;;;;;;;14.55;10.25;;;;;;;3.30;100.00;100494.22;4820445;29;20054;-67
2023/12/08 07:46:07;;;;;;;19.85;11.20;;;;;;;3.32;100.00;100502.91;4819402;29;20500;-68
2023/12/08 07:48:56;;;;;;;16.10;9.95;;;;;;;3.34;100.00;100503.50;4818231;29;20590;-66
2023/12/08 07:51:44;;;;;;;19.73;10.27;;;;;;;3.36;100.00;100512.16;4811303;29;20137;-65
2023/12/08 07:54:32;;;;;;;16.33;9.70;;;;;;;3.38;100.00;100523.50;4821245;29;20050;-68
2023/12/08 07:57:20;;;;;;;15.63;10.13;;;;;;;3.44;100.00;100520.97;4832058;29;20065;-67
2023/12/08 08:00:10;;;;;;;16.00;10.45;;;;;;;3.44;100.00;100521.81;4830495;29;20062;-67
2023/12/08 08:02:58;;;;;;;15.10;10.23;;;;;;;3.46;100.00;100525.06;4833211;29;20129;-67
2023/12/08 08:05:47;;;;;;;16.67;10.70;;;;;;;3.49;100.00;100523.78;4822273;29;20058;-65
2023/12/08 08:08:36;;;;;;;16.60;10.00;;;;;;;3.50;100.00;100533.53;4828566;29;20073;-68
2023/12/08 08:11:24;;;;;;;17.50;9.68;;;;;;;3.49;100.00;100523.78;4837426;29;20057;-68
2023/12/08 08:14:11;;;;;;;17.75;10.80;;;;;;;3.51;100.00;100527.06;4826956;29;20051;-66
2023/12/08 08:17:00;;;;;;;14.88;9.73;;;;;;;3.49;100.00;100523.78;4806410;29;20145;-68
2023/12/08 08:19:48;;;;;;;17.90;10.98;;;;;;;3.53;100.00;100530.38;4824259;29;20131;-67
2023/12/08 08:22:36;;;;;;;18.05;11.07;;;;;;;3.51;100.00;100525.22;4834612;29;20050;-67
2023/12/08 08:25:24;;;;;;;17.60;11.00;;;;;;;3.54;100.00;100522.06;4829598;29;20128;-66
2023/12/08 08:28:14;;;;;;;16.80;10.73;;;;;;;3.53;100.00;100515.03;4839570;29;20061;-68
2023/12/08 08:31:02;;;;;;;15.43;9.63;;;;;;;3.53;100.00;100519.59;4840978;29;20053;-66
2023/12/08 08:33:50;;;;;;;19.35;10.55;;;;;;;3.54;100.00;100513.19;4811905;29;20058;-67
2023/12/08 08:36:39;;;;;;;14.77;9.45;;;;;;;3.55;100.00;100520.19;4825437;29;20498;-65
2023/12/08 08:39:27;;;;;;;13.60;8.52;;;;;;;3.58;100.00;100517.88;4823576;29;20575;-69
2023/12/08 08:42:16;;;;;;;20.60;11.05;;;;;;;3.61;100.00;100520.09;4832050;29;20525;-66
2023/12/08 08:45:05;;;;;;;20.92;12.32;;;;;;;3.59;100.00;100529.47;4840028;29;20046;-60
2023/12/08 08:47:54;;;;;;;16.17;9.82;;;;;;;3.60;100.00;100541.88;4839438;29;20079;-67
2023/12/08 08:50:42;;;;;;;22.42;12.15;;;;;;;3.60;100.00;100550.78;4822974;29;20054;-65
2023/12/08 08:53:37;;;;;;;19.00;12.05;;;;;;;3.66;100.00;100546.34;4831888;29;20059;-65
2023/12/08 08:56:25;;;;;;;20.83;10.73;;;;;;;3.68;100.00;100544.25;4833701;29;20150;-66
2023/12/08 08:59:13;;;;;;;25.20;14.80;;;;;;;3.70;100.00;100541.31;4844143;29;20073;-66
2023/12/08 09:02:01;;;;;;;20.40;13.57;;;;;;;3.71;100.00;100548.38;4832742;29;20129;-66
2023/12/08 09:04:49;;;;;;;22.33;13.13;;;;;;;3.73;100.00;100546.25;4823911;29;20042;-66
2023/12/08 09:07:38;;;;;;;26.33;13.52;;;;;;;3.74;100.00;100548.72;4814837;29;20537;-67
2023/12/08 09:10:26;;;;;;;24.20;14.70;;;;;;;3.75;100.00;100546.84;4842300;29;20518;-66
2023/12/08 09:13:14;;;;;;;22.98;12.73;;;;;;;3.75;100.00;100555.78;4826243;29;20055;-66
2023/12/08 09:16:02;;;;;;;18.40;10.75;;;;;;;3.77;100.00;100559.03;4825397;29;20045;-65
2023/12/08 09:18:50;;;;;;;23.58;13.88;;;;;;;3.78;100.00;100559.88;4825469;29;20633;-65
2023/12/08 09:21:38;;;;;;;19.90;10.88;;;;;;;3.89;100.00;100559.06;4823674;29;20042;-67
2023/12/08 09:24:39;;;;;;;22.42;12.02;;;;;;;4.05;100.00;100560.28;4824623;29;20452;-69
2023/12/08 09:27:27;;;;;;;21.70;12.65;;;;;;;4.12;100.00;100563.69;4824730;29;20046;-68
2023/12/08 09:30:15;;;;;;;24.95;14.90;;;;;;;4.20;100.00;100568.75;4839093;29;20472;-66
2023/12/08 09:33:04;;;;;;;25.08;14.32;;;;;;;4.17;100.00;100563.00;4812202;29;20047;-66
2023/12/08 09:35:55;;;;;;;26.02;14.98;;;;;;;4.10;100.00;100563.09;4826117;29;20396;-65
2023/12/08 09:38:43;;;;;;;21.52;12.48;;;;;;;4.08;100.00;100561.69;4825420;29;20055;-66
2023/12/08 09:41:31;;;;;;;21.92;13.10;;;;;;;4.10;100.00;100573.91;4834426;29;20069;-66
2023/12/08 09:44:19;;;;;;;23.85;13.93;;;;;;;4.09;100.00;100574.97;4811924;29;20054;-67
2023/12/08 09:47:09;;;;;;;29.67;15.65;;;;;;;4.07;100.00;100563.56;4824704;29;20106;-67
2023/12/08 09:49:57;;;;;;;29.27;15.23;;;;;;;4.07;100.00;100568.16;4828347;29;20155;-65
2023/12/08 09:52:46;;;;;;;25.30;16.85;;;;;;;4.06;100.00;100567.31;4846586;29;20054;-65
2023/12/08 09:55:37;;;;;;;28.02;14.18;;;;;;;4.08;100.00;100564.41;4829981;29;20526;-67
2023/12/08 09:58:27;;;;;;;26.27;15.50;;;;;;;4.08;100.00;100565.22;4842432;29;20065;-63
2023/12/08 10:01:16;;;;;;;27.33;16.17;;;;;;;4.07;100.00;100563.56;4830989;29;20062;-65
2023/12/08 10:04:05;;;;;;;35.30;19.58;;;;;;;4.12;100.00;100570.97;4812279;29;20500;-66
2023/12/08 10:06:59;;;;;;;32.72;16.98;;;;;;;4.13;100.00;100570.72;4838553;29;20053;-65
2023/12/08 10:09:47;;;;;;;23.33;15.13;;;;;;;4.14;100.00;100574.28;4841595;29;20056;-65
2023/12/08 10:12:36;;;;;;;27.25;16.73;;;;;;;4.19;100.00;100579.78;4829347;29;20053;-66
2023/12/08 10:15:24;;;;;;;26.25;13.85;;;;;;;4.27;100.00;100574.84;4842341;29;20525;-64
2023/12/08 10:18:25;;;;;;;23.90;13.57;;;;;;;4.29;100.00;100571.94;4840045;29;20054;-66
2023/12/08 10:21:16;;;;;;;31.33;18.00;;;;;;;4.31;100.00;100574.41;4840286;29;20058;-64
2023/12/08 10:24:04;;;;;;;28.75;16.83;;;;;;;4.32;100.00;100567.94;4841947;29;20102;-66
2023/12/08 10:26:53;;;;;;;20.80;12.82;;;;;;;4.35;100.00;100580.97;4829103;29;20125;-65
2023/12/08 10:29:42;;;;;;;22.48;11.48;;;;;;;4.40;100.00;100584.63;4842098;29;20050;-67
2023/12/08 10:32:30;;;;;;;26.48;16.25;;;;;;;4.46;100.00;100590.94;4830625;29;20095;-66
2023/12/08 10:35:19;;;;;;;28.23;15.85;;;;;;;4.47;100.00;100584.50;4841865;29;20098;-66
2023/12/08 10:38:08;;;;;;;27.38;15.85;;;;;;;4.49;100.00;100583.19;4841895;29;20049;-64
2023/12/08 10:40:58;;;;;;;27.55;15.80;;;;;;;4.54;100.00;100589.78;4827512;29;20515;-65
2023/12/08 10:43:46;;;;;;;29.13;15.73;;;;;;;4.55;100.00;100589.56;4823874;29;20050;-66
2023/12/08 10:46:35;;;;;;;20.95;12.32;;;;;;;4.56;100.00;100593.88;4840386;29;20468;-66
2023/12/08 10:49:24;;;;;;;20.02;10.88;;;;;;;4.62;100.00;100598.34;4822262;29;20195;-67
2023/12/08 10:52:12;;;;;;;21.52;11.07;;;;;;;4.65;100.00;100588.97;4822111;29;20129;-67
2023/12/08 10:55:00;;;;;;;21.20;11.60;;;;;;;4.66;100.00;100594.13;4824017;29;20053;-65
2023/12/08 10:57:51;;;;;;;23.23;11.40;;;;;;;4.66;100.00;100577.94;4824045;29;20097;-65
2023/12/08 11:00:40;;;;;;;21.52;11.85;;;;;;;4.69;100.00;100593.66;4837460;29;20507;-65
2023/12/08 11:03:33;;;;;;;20.10;10.18;;;;;;;4.72;100.00;100575.38;4838223;29;20066;-66
2023/12/08 11:06:35;;;;;;;21.13;9.68;;;;;;;4.78;100.00;100577.09;4811423;29;20415;-66
2023/12/08 11:09:23;;;;;;;24.25;12.98;;;;;;;4.80;100.00;100577.69;4823746;29;20504;-66
2023/12/08 11:12:13;;;;;;;20.17;11.23;;;;;;;4.79;100.00;100581.47;4823346;29;20054;-66
2023/12/08 11:15:06;;;;;;;24.00;12.85;;;;;;;4.83;100.00;100585.31;4823600;29;20151;-66
2023/12/08 11:18:01;;;;;;;20.35;10.35;;;;;;;4.83;100.00;100586.13;4831805;29;20050;-66
2023/12/08 11:20:50;;;;;;;22.08;11.45;;;;;;;4.86;100.00;100579.47;4839214;29;20494;-66
2023/12/08 11:23:39;;;;;;;26.17;12.93;;;;;;;4.86;100.00;100588.38;4841016;29;20062;-66
2023/12/08 11:26:39;;;;;;;26.00;13.55;;;;;;;4.88;100.00;100590.81;4841150;29;20046;-68
2023/12/08 11:29:51;;;;;;;24.25;11.55;;;;;;;4.90;100.00;100578.72;4833105;29;20042;-68
2023/12/08 11:32:51;;;;;;;27.52;14.23;;;;;;;4.94;100.00;100579.09;4838187;29;20054;-67
2023/12/08 11:35:39;;;;;;;32.20;14.90;;;;;;;4.97;100.00;100592.13;4825644;29;20151;-66
2023/12/08 11:38:30;;;;;;;24.65;12.50;;;;;;;4.98;100.00;100591.06;4836645;29;20089;-65
2023/12/08 11:41:18;;;;;;;27.10;13.25;;;;;;;5.03;100.00;100591.19;4832417;29;20065;-68
2023/12/08 11:44:08;;;;;;;28.77;14.55;;;;;;;5.06;100.00;100585.31;4824657;29;20464;-67
2023/12/08 11:46:56;;;;;;;27.10;13.43;;;;;;;5.07;100.00;100578.81;4825492;29;20411;-64
2023/12/08 11:49:45;;;;;;;29.25;14.98;;;;;;;5.12;100.00;100576.25;4828725;29;20221;-68
2023/12/08 11:52:36;;;;;;;28.00;14.80;;;;;;;5.17;100.00;100582.81;4830426;29;20526;-66
2023/12/08 11:55:26;;;;;;;28.60;14.80;;;;;;;5.16;100.00;100582.00;4827906;29;20061;-66
2023/12/08 11:58:31;;;;;;;29.67;14.95;;;;;;;5.16;100.00;100591.97;4808897;29;20119;-66
2023/12/08 12:01:19;;;;;;;26.70;14.63;;;;;;;5.20;100.00;100598.56;4834966;29;20053;-68
2023/12/08 12:04:10;;;;;;;28.67;14.60;;;;;;;5.21;100.00;100601.00;4838951;29;20507;-67
2023/12/08 12:06:58;;;;;;;30.20;14.93;;;;;;;5.22;100.00;100599.13;4832148;29;20064;-66
2023/12/08 12:09:49;;;;;;;29.77;15.38;;;;;;;5.23;100.00;100598.06;4825525;29;20531;-66
2023/12/08 12:12:42;;;;;;;34.70;17.00;;;;;;;5.29;100.00;100607.91;4836461;29;20053;-66
2023/12/08 12:15:33;;;;;;;31.23;15.80;;;;;;;5.31;100.00;100611.19;4826955;29;20046;-66
2023/12/08 12:18:23;;;;;;;30.13;16.42;;;;;;;5.32;100.00;100602.06;4823052;29;20053;-67
2023/12/08 12:21:11;;;;;;;30.38;16.05;;;;;;;5.32;100.00;100612.84;4823282;29;20048;-67
2023/12/08 12:23:59;;;;;;;32.67;16.63;;;;;;;5.36;100.00;100605.91;4831176;29;20464;-69
2023/12/08 12:26:47;;;;;;;29.35;14.77;;;;;;;5.40;100.00;100608.97;4834249;29;20064;-68
2023/12/08 12:29:35;;;;;;;31.35;15.63;;;;;;;5.39;100.00;100616.25;4831160;29;20050;-66
2023/12/08 12:32:23;;;;;;;31.38;14.95;;;;;;;5.45;100.00;100619.88;4810928;29;20058;-68
2023/12/08 12:35:13;;;;;;;29.80;15.85;;;;;;;5.44;100.00;100605.53;4839704;29;20137;-66
2023/12/08 12:38:03;;;;;;;36.88;15.98;;;;;;;5.47;100.00;100610.47;4837269;29;20125;-66
2023/12/08 12:40:53;;;;;;;36.22;15.77;;;;;;;5.50;100.00;100612.66;4825291;29;20420;-66
2023/12/08 12:43:42;;;;;;;37.35;16.40;;;;;;;5.53;100.00;100614.91;4825836;29;20106;-66
2023/12/08 12:46:30;;;;;;;32.85;16.35;;;;;;;5.53;100.00;100608.66;4838171;29;20206;-66
2023/12/08 12:49:18;;;;;;;37.05;16.20;;;;;;;5.58;100.00;100605.25;4833337;29;20393;-65